Gloversville, New York
Current Conditions -  °F | °C
As of 7:35 AM on Friday 24 Oct 2014 (Local Time) from KNY0 Reporting Station
Overcast Overcast  
Wind Chill:   Ceiling: 2300
Heat Index:   Visibility: 10mi
Dew Point:   Wind: 6mph
Humidity: 97%   Direction: 260°W
Pressure: 29.85"   Gusts: NA
Location:  43.06°N, 74.34°W
Report Text: KNY0 241135Z AUTO 26005KT 10SM OVC023 06/05 A2985 RMK AO2 P0001 T00550050
Loading
Personal Weather Stations






























Interactive Weather Map
Tropical Storm Tracking
New forecast layout! Learn more

10-Day Weather Forecast

Advertisements
Track Severe Weather on mobile